createdAt,value
2023-06-03T00:01:06.586Z,101985.44
2023-06-03T00:03:38.149Z,101980.25
2023-06-03T00:06:07.145Z,101984.09
2023-06-03T00:08:35.450Z,101992.25
2023-06-03T00:11:04.071Z,101991.78
2023-06-03T00:13:32.625Z,101990.91
2023-06-03T00:16:01.009Z,101987.63
2023-06-03T00:18:29.278Z,101988.22
2023-06-03T00:20:58.981Z,101994.28
2023-06-03T00:23:27.950Z,101982.22
2023-06-03T00:25:56.401Z,101986.84
2023-06-03T00:28:24.604Z,101988.06
2023-06-03T00:30:52.962Z,101989.78
2023-06-03T00:33:21.277Z,101985.56
2023-06-03T00:35:49.790Z,101996.59
2023-06-03T00:38:19.727Z,101985.78
2023-06-03T00:40:48.006Z,101988.63
2023-06-03T00:43:16.317Z,101990.66
2023-06-03T00:45:44.620Z,101985.34
2023-06-03T00:48:13.500Z,101981.13
2023-06-03T00:50:42.254Z,101987.81
2023-06-03T00:53:10.660Z,101986.69
2023-06-03T00:55:42.076Z,101990.97
2023-06-03T00:58:10.810Z,101991.75
2023-06-03T01:00:39.067Z,101983.59
2023-06-03T01:03:14.528Z,101985.19
2023-06-03T01:05:47.024Z,101989.97
2023-06-03T01:08:24.983Z,101987.25
2023-06-03T01:11:07.473Z,101987.25
2023-06-03T01:13:44.751Z,101984.53
2023-06-03T01:16:16.002Z,101986.44
2023-06-03T01:18:47.684Z,101987.25
2023-06-03T01:21:17.675Z,101986.09
2023-06-03T01:23:49.574Z,101981.00
2023-06-03T01:26:20.335Z,101977.16
2023-06-03T01:28:50.613Z,101981.81
2023-06-03T01:31:19.565Z,101974.78
2023-06-03T01:33:48.254Z,101981.34
2023-06-03T01:36:17.266Z,101978.63
2023-06-03T01:38:47.024Z,101970.47
2023-06-03T01:41:15.421Z,101979.44
2023-06-03T01:43:43.788Z,101977.03
2023-06-03T01:46:12.241Z,101980.09
2023-06-03T01:48:40.588Z,101975.81
2023-06-03T01:51:08.924Z,101980.09
2023-06-03T01:53:37.202Z,101982.38
2023-06-03T01:56:08.304Z,101988.16
2023-06-03T01:58:36.382Z,101983.03
2023-06-03T02:01:04.809Z,101984.56
2023-06-03T02:03:33.233Z,101986.13
2023-06-03T02:06:01.498Z,101986.91
2023-06-03T02:08:29.862Z,101993.13
2023-06-03T02:10:58.154Z,101993.91
2023-06-03T02:13:27.915Z,101987.38
2023-06-03T02:15:56.174Z,101996.31
2023-06-03T02:18:25.330Z,101985.44
2023-06-03T02:20:53.641Z,101988.16
2023-06-03T02:23:22.379Z,101986.56
2023-06-03T02:25:51.031Z,101979.53
2023-06-03T02:28:23.763Z,101991.19
2023-06-03T02:30:53.506Z,101987.69
2023-06-03T02:33:21.766Z,101992.34
2023-06-03T02:35:50.012Z,101994.97
2023-06-03T02:38:18.257Z,101986.34
2023-06-03T02:40:46.542Z,101987.06
2023-06-03T02:43:15.290Z,101983.91
2023-06-03T02:45:43.757Z,101981.84
2023-06-03T02:48:13.326Z,101997.72
2023-06-03T02:50:41.547Z,101991.78
2023-06-03T02:53:11.063Z,101990.22
2023-06-03T02:55:39.384Z,101992.50
2023-06-03T02:58:07.665Z,101996.38
2023-06-03T03:00:36.858Z,101998.59
2023-06-03T03:03:05.449Z,101990.78
2023-06-03T03:05:35.314Z,101996.59
2023-06-03T03:08:05.022Z,102003.16
2023-06-03T03:10:33.338Z,101998.06
2023-06-03T03:13:01.615Z,101998.38
2023-06-03T03:15:29.858Z,102002.22
2023-06-03T03:17:58.194Z,102008.81
2023-06-03T03:20:30.187Z,102005.19
2023-06-03T03:23:01.203Z,101994.66
2023-06-03T03:25:29.522Z,102000.44
2023-06-03T03:27:59.268Z,102003.50
2023-06-03T03:30:27.604Z,102005.44
2023-06-03T03:32:57.694Z,102005.44
2023-06-03T03:35:26.102Z,102003.81
2023-06-03T03:38:04.116Z,102002.22
2023-06-03T03:40:34.545Z,102003.38
2023-06-03T03:43:04.075Z,102005.66
2023-06-03T03:45:37.037Z,102002.94
2023-06-03T03:48:07.755Z,102005.66
2023-06-03T03:50:47.162Z,102003.28
2023-06-03T03:53:19.226Z,102007.91
2023-06-03T03:55:49.910Z,102010.16
2023-06-03T03:58:29.801Z,102010.50
2023-06-03T04:01:02.163Z,102010.94
2023-06-03T04:03:36.945Z,102010.63
2023-06-03T04:06:06.006Z,102006.31
2023-06-03T04:08:46.683Z,102010.63
2023-06-03T04:11:22.320Z,102011.09
2023-06-03T04:13:51.800Z,102018.09
2023-06-03T04:16:57.230Z,102016.59
2023-06-03T04:19:31.886Z,102023.63
2023-06-03T04:22:01.132Z,102008.22
2023-06-03T04:24:31.840Z,102016.03
2023-06-03T04:27:00.207Z,102027.84
2023-06-03T04:29:28.491Z,102030.34
2023-06-03T04:31:56.927Z,102025.78
2023-06-03T04:34:30.899Z,102018.97
2023-06-03T04:36:59.256Z,102021.47
2023-06-03T04:39:28.564Z,102020.09
2023-06-03T04:41:58.304Z,102022.72
2023-06-03T04:44:30.344Z,102024.53
2023-06-03T04:47:02.114Z,102029.78
2023-06-03T04:49:33.446Z,102027.75
2023-06-03T04:52:02.490Z,102031.47
2023-06-03T04:54:30.816Z,102023.53
2023-06-03T04:57:00.466Z,102024.16
2023-06-03T04:59:28.733Z,102032.97
2023-06-03T05:01:56.985Z,102025.38
2023-06-03T05:04:30.631Z,102023.63
2023-06-03T05:06:58.913Z,102026.16
2023-06-03T05:09:27.168Z,102027.50
2023-06-03T05:11:56.532Z,102029.25
2023-06-03T05:14:26.473Z,102031.03
2023-06-03T05:16:54.808Z,102036.66
2023-06-03T05:19:23.204Z,102032.97
2023-06-03T05:21:51.542Z,102032.00
2023-06-03T05:24:19.819Z,102030.97
2023-06-03T05:26:48.089Z,102027.63
2023-06-03T05:29:16.362Z,102023.47
2023-06-03T05:31:46.099Z,102029.09
2023-06-03T05:34:15.640Z,102026.88
2023-06-03T05:36:43.961Z,102022.75
2023-06-03T05:39:12.664Z,102026.78
2023-06-03T05:41:41.588Z,102017.63
2023-06-03T05:44:12.268Z,102031.06
2023-06-03T05:46:40.658Z,102029.28
2023-06-03T05:49:10.338Z,102034.50
2023-06-03T05:51:38.668Z,102035.94
2023-06-03T05:54:07.811Z,102038.06
2023-06-03T05:56:36.061Z,102024.56
2023-06-03T05:59:04.652Z,102024.72
2023-06-03T06:01:33.873Z,102026.81
2023-06-03T06:04:02.510Z,102028.88
2023-06-03T06:06:32.260Z,102030.56
2023-06-03T06:09:00.520Z,102022.53
2023-06-03T06:11:29.005Z,102017.63
2023-06-03T06:13:57.455Z,102025.66
2023-06-03T06:16:32.533Z,102028.91
2023-06-03T06:19:00.911Z,102029.91
2023-06-03T06:21:29.201Z,102037.47
2023-06-03T06:23:59.081Z,102041.91
2023-06-03T06:26:27.973Z,102033.44
2023-06-03T06:28:56.811Z,102035.97
2023-06-03T06:31:25.264Z,102044.69
2023-06-03T06:33:53.909Z,102040.16
2023-06-03T06:36:43.396Z,102037.16
2023-06-03T06:39:50.344Z,102039.31
2023-06-03T06:42:32.710Z,102035.91
2023-06-03T06:45:10.234Z,102032.56
2023-06-03T06:47:39.883Z,102032.31
2023-06-03T06:50:24.552Z,102035.16
2023-06-03T06:52:52.989Z,102039.63
2023-06-03T06:55:42.326Z,102033.81
2023-06-03T06:58:11.949Z,102028.84
2023-06-03T07:00:40.549Z,102040.66
2023-06-03T07:03:10.431Z,102046.25
2023-06-03T07:05:38.826Z,102034.56
2023-06-03T07:08:09.466Z,102036.19
2023-06-03T07:10:39.346Z,102038.22
2023-06-03T07:13:09.495Z,102040.28
2023-06-03T07:15:41.916Z,102033.28
2023-06-03T07:18:11.877Z,102040.00
2023-06-03T07:20:44.127Z,102040.44
2023-06-03T07:23:14.221Z,102031.47
2023-06-03T07:25:45.783Z,102043.22
2023-06-03T07:28:16.538Z,102033.47
2023-06-03T07:30:46.621Z,102038.63
2023-06-03T07:33:28.136Z,102036.72
2023-06-03T07:35:58.172Z,102032.03
2023-06-03T07:39:16.874Z,102030.88
2023-06-03T07:41:52.290Z,102033.63
2023-06-03T07:44:40.379Z,102038.38
2023-06-03T07:47:09.770Z,102032.50
2023-06-03T07:49:38.309Z,102034.47
2023-06-03T07:52:07.023Z,102034.13
2023-06-03T07:54:37.390Z,102027.06
2023-06-03T07:57:07.518Z,102028.25
2023-06-03T07:59:36.068Z,102029.47
2023-06-03T08:02:05.688Z,102029.84
2023-06-03T08:04:36.535Z,102021.22
2023-06-03T08:07:07.036Z,102022.38
2023-06-03T08:09:37.776Z,102026.69
2023-06-03T08:12:10.464Z,102019.59
2023-06-03T08:14:40.503Z,102026.66
2023-06-03T08:17:12.858Z,102022.69
2023-06-03T08:19:41.629Z,102025.03
2023-06-03T08:22:32.424Z,102022.63
2023-06-03T08:25:00.785Z,102033.25
2023-06-03T08:27:33.215Z,102021.00
2023-06-03T08:30:04.427Z,102013.09
2023-06-03T08:32:35.533Z,102016.19
2023-06-03T08:35:05.172Z,102017.75
2023-06-03T08:37:34.987Z,102023.94
2023-06-03T08:40:07.129Z,102016.06
2023-06-03T08:42:43.839Z,102027.00
2023-06-03T08:45:13.612Z,102024.22
2023-06-03T08:48:08.934Z,102018.25
2023-06-03T08:50:38.312Z,102021.34
2023-06-03T08:53:10.464Z,102000.81
2023-06-03T08:55:40.643Z,102013.84
2023-06-03T08:58:15.455Z,102013.03
2023-06-03T09:00:45.303Z,101998.41
2023-06-03T09:03:14.627Z,102003.09
2023-06-03T09:05:44.149Z,101999.19
2023-06-03T09:08:16.001Z,102002.25
2023-06-03T09:10:47.912Z,102006.19
2023-06-03T09:13:19.303Z,102005.78
2023-06-03T09:15:48.615Z,102012.00
2023-06-03T09:18:16.946Z,102010.00
2023-06-03T09:20:45.228Z,102004.41
2023-06-03T09:23:14.447Z,102015.34
2023-06-03T09:25:42.857Z,102023.53
2023-06-03T09:28:11.216Z,102011.63
2023-06-03T09:30:42.449Z,102004.84
2023-06-03T09:33:11.894Z,102020.53
2023-06-03T09:35:40.187Z,102018.00
2023-06-03T09:38:08.474Z,102010.84
2023-06-03T09:40:37.331Z,102014.25
2023-06-03T09:43:13.473Z,102016.47
2023-06-03T09:45:43.290Z,102011.63
2023-06-03T09:48:12.067Z,102017.44
2023-06-03T09:50:51.613Z,102019.66
2023-06-03T09:53:21.301Z,102016.38
2023-06-03T09:55:49.650Z,102011.50
2023-06-03T09:58:24.020Z,101999.19
2023-06-03T10:00:56.421Z,101994.72
2023-06-03T10:03:26.712Z,102016.75
2023-06-03T10:05:55.418Z,102008.88
2023-06-03T10:08:32.834Z,102009.53
2023-06-03T10:11:03.205Z,102019.69
2023-06-03T10:13:31.769Z,102021.88
2023-06-03T10:16:03.447Z,102017.78
2023-06-03T10:18:39.611Z,102017.19
2023-06-03T10:21:10.004Z,102007.53
2023-06-03T10:23:41.193Z,102017.63
2023-06-03T10:26:10.849Z,102009.09
2023-06-03T10:28:40.202Z,102008.53
2023-06-03T10:31:10.381Z,102003.72
2023-06-03T10:33:40.093Z,102010.47
2023-06-03T10:36:10.532Z,101997.25
2023-06-03T10:38:41.223Z,101995.84
2023-06-03T10:41:11.536Z,101990.16
2023-06-03T10:43:40.186Z,102000.00
2023-06-03T10:46:10.174Z,101996.81
2023-06-03T10:48:40.303Z,101997.53
2023-06-03T10:51:22.416Z,101997.47
2023-06-03T10:54:10.219Z,102001.00
2023-06-03T10:56:45.222Z,102003.31
2023-06-03T10:59:19.833Z,101991.91
2023-06-03T11:02:00.657Z,101998.16
2023-06-03T11:04:30.843Z,101992.09
2023-06-03T11:06:59.536Z,102003.00
2023-06-03T11:09:37.112Z,102005.59
2023-06-03T11:12:10.440Z,102001.09
2023-06-03T11:14:58.214Z,102005.78
2023-06-03T11:17:29.125Z,101983.09
2023-06-03T11:20:00.437Z,101994.38
2023-06-03T11:22:55.798Z,101996.19
2023-06-03T11:25:41.872Z,101994.53
2023-06-03T11:28:37.746Z,101992.47
2023-06-03T11:31:08.590Z,101993.25
2023-06-03T11:33:38.940Z,101994.03
2023-06-03T11:36:58.682Z,101979.56
2023-06-03T11:39:27.478Z,101992.09
2023-06-03T11:42:07.485Z,101978.66
2023-06-03T11:44:36.582Z,101981.00
2023-06-03T11:47:06.672Z,101984.13
2023-06-03T11:50:13.175Z,101977.44
2023-06-03T11:52:42.355Z,101985.78
2023-06-03T11:55:11.132Z,101985.59
2023-06-03T11:57:39.468Z,101981.53
2023-06-03T12:00:11.114Z,101980.75
2023-06-03T12:02:41.679Z,101969.66
2023-06-03T12:05:12.386Z,101968.16
2023-06-03T12:07:40.770Z,101973.91
2023-06-03T12:10:10.024Z,101965.25
2023-06-03T12:12:38.331Z,101966.13
2023-06-03T12:15:07.656Z,101972.56
2023-06-03T12:17:36.017Z,101965.78
2023-06-03T12:20:05.629Z,101962.91
2023-06-03T12:22:35.282Z,101968.28
2023-06-03T12:27:32.505Z,101960.38
2023-06-03T12:30:02.890Z,101962.81
2023-06-03T12:32:32.862Z,101955.03
2023-06-03T12:35:12.497Z,101964.56
2023-06-03T12:37:42.461Z,101958.94
2023-06-03T12:40:11.727Z,101963.28
2023-06-03T12:42:43.597Z,101951.41
2023-06-03T12:45:12.982Z,101953.72
2023-06-03T12:47:47.489Z,101947.31
2023-06-03T12:50:17.809Z,101957.97
2023-06-03T12:55:19.598Z,101959.84
2023-06-03T12:57:49.522Z,101968.88
2023-06-03T13:00:21.279Z,101964.19
2023-06-03T13:02:51.698Z,101956.31
2023-06-03T13:10:20.308Z,101962.63
2023-06-03T13:12:49.145Z,101956.22
2023-06-03T13:15:18.041Z,101950.47
2023-06-03T13:17:46.762Z,101948.03
2023-06-03T13:20:17.083Z,101948.38
2023-06-03T13:22:45.844Z,101937.28
2023-06-03T13:25:15.521Z,101937.41
2023-06-03T13:27:44.526Z,101937.84
2023-06-03T13:30:14.502Z,101942.72
2023-06-03T13:32:44.154Z,101941.81
2023-06-03T13:35:13.023Z,101940.25
2023-06-03T13:37:41.507Z,101942.72
2023-06-03T13:40:11.022Z,101929.72
2023-06-03T13:42:42.440Z,101930.25
2023-06-03T13:45:12.279Z,101943.75
2023-06-03T13:47:41.201Z,101937.78
2023-06-03T13:50:10.664Z,101936.88
2023-06-03T13:52:39.234Z,101932.22
2023-06-03T13:55:08.844Z,101934.31
2023-06-03T13:57:37.293Z,101929.53
2023-06-03T14:00:09.595Z,101924.00
2023-06-03T14:02:37.978Z,101926.00
2023-06-03T14:05:07.631Z,101924.00
2023-06-03T14:07:36.151Z,101912.91
2023-06-03T14:10:06.765Z,101916.94
2023-06-03T14:12:34.995Z,101909.34
2023-06-03T14:15:03.563Z,101907.03
2023-06-03T14:17:33.282Z,101911.09
2023-06-03T14:20:01.933Z,101902.88
2023-06-03T14:22:31.713Z,101903.75
2023-06-03T14:25:00.005Z,101893.66
2023-06-03T14:27:28.352Z,101898.41
2023-06-03T14:29:56.663Z,101892.53
2023-06-03T14:32:25.270Z,101890.56
2023-06-03T14:34:55.012Z,101896.28
2023-06-03T14:37:23.549Z,101886.13
2023-06-03T14:39:53.534Z,101891.06
2023-06-03T14:42:23.499Z,101891.78
2023-06-03T14:45:00.864Z,101888.84
2023-06-03T14:47:30.187Z,101884.59
2023-06-03T14:50:00.807Z,101879.06
2023-06-03T14:52:29.472Z,101881.84
2023-06-03T14:54:57.822Z,101869.63
2023-06-03T14:57:26.202Z,101874.38
2023-06-03T14:59:54.521Z,101876.13
2023-06-03T15:02:23.028Z,101869.19
2023-06-03T15:04:51.510Z,101870.75
2023-06-03T15:07:21.384Z,101870.75
2023-06-03T15:09:49.642Z,101874.78
2023-06-03T15:12:19.423Z,101871.75
2023-06-03T15:14:48.070Z,101873.44
2023-06-03T15:17:16.480Z,101863.63
2023-06-03T15:19:45.013Z,101873.59
2023-06-03T15:22:13.351Z,101870.53
2023-06-03T15:24:43.039Z,101873.03
2023-06-03T15:27:11.669Z,101864.13
2023-06-03T15:29:39.944Z,101868.59
2023-06-03T15:32:09.265Z,101868.72
2023-06-03T15:34:37.816Z,101874.41
2023-06-03T15:37:06.470Z,101866.25
2023-06-03T15:39:34.824Z,101859.25
2023-06-03T15:42:06.522Z,101861.22
2023-06-03T15:44:35.174Z,101861.03
2023-06-03T15:47:05.004Z,101865.94
2023-06-03T15:49:33.602Z,101862.53
2023-06-03T15:52:02.076Z,101856.78
2023-06-03T15:54:30.426Z,101863.56
2023-06-03T15:56:58.730Z,101856.19
2023-06-03T15:59:28.414Z,101854.38
2023-06-03T16:01:57.048Z,101855.31
2023-06-03T16:04:26.860Z,101861.66
2023-06-03T16:06:56.701Z,101855.84
2023-06-03T16:09:24.959Z,101853.59
2023-06-03T16:11:53.245Z,101851.72
2023-06-03T16:14:21.704Z,101854.53
2023-06-03T16:16:51.546Z,101843.16
2023-06-03T16:19:20.615Z,101856.97
2023-06-03T16:21:49.062Z,101846.38
2023-06-03T16:24:17.625Z,101859.00
2023-06-03T16:26:46.747Z,101861.84
2023-06-03T16:29:15.775Z,101844.53
2023-06-03T16:31:44.082Z,101856.81
2023-06-03T16:34:13.806Z,101846.59
2023-06-03T16:36:42.161Z,101850.53
2023-06-03T16:39:10.423Z,101842.75
2023-06-03T16:41:38.692Z,101840.44
2023-06-03T16:44:07.002Z,101847.56
2023-06-03T16:46:35.401Z,101840.56
2023-06-03T16:49:03.906Z,101843.38
2023-06-03T16:51:33.572Z,101844.66
2023-06-03T16:54:01.945Z,101846.75
2023-06-03T16:56:31.899Z,101844.88
2023-06-03T16:59:00.225Z,101837.09
2023-06-03T17:01:28.539Z,101847.41
2023-06-03T17:03:59.516Z,101838.06
2023-06-03T17:06:27.834Z,101846.34
2023-06-03T17:08:57.841Z,101836.19
2023-06-03T17:11:26.431Z,101848.00
2023-06-03T17:13:54.889Z,101853.19
2023-06-03T17:16:23.344Z,101850.88
2023-06-03T17:18:52.110Z,101849.75
2023-06-03T17:21:21.262Z,101850.16
2023-06-03T17:23:51.515Z,101856.13
2023-06-03T17:26:21.244Z,101851.06
2023-06-03T17:28:49.540Z,101860.59
2023-06-03T17:31:17.891Z,101852.69
2023-06-03T17:33:47.641Z,101855.19
2023-06-03T17:36:16.274Z,101849.75
2023-06-03T17:38:44.666Z,101844.28
2023-06-03T17:41:12.977Z,101843.53
2023-06-03T17:43:43.274Z,101841.25
2023-06-03T17:46:11.750Z,101842.06
2023-06-03T17:48:40.696Z,101842.06
2023-06-03T17:51:09.240Z,101853.16
2023-06-03T17:53:37.723Z,101848.50
2023-06-03T17:56:06.576Z,101836.72
2023-06-03T17:58:35.159Z,101838.75
2023-06-03T18:01:05.613Z,101844.28
2023-06-03T18:03:33.957Z,101838.00
2023-06-03T18:06:02.251Z,101838.47
2023-06-03T18:08:30.653Z,101847.09
2023-06-03T18:10:59.252Z,101850.69
2023-06-03T18:13:27.564Z,101846.34
2023-06-03T18:15:55.953Z,101858.94
2023-06-03T18:18:25.831Z,101851.88
2023-06-03T18:20:54.555Z,101855.84
2023-06-03T18:23:23.049Z,101843.69
2023-06-03T18:25:51.388Z,101855.53
2023-06-03T18:28:19.801Z,101859.81
2023-06-03T18:30:48.142Z,101853.97
2023-06-03T18:33:17.017Z,101867.72
2023-06-03T18:35:46.678Z,101870.88
2023-06-03T18:38:14.996Z,101855.94
2023-06-03T18:40:43.282Z,101868.53
2023-06-03T18:43:11.623Z,101875.63
2023-06-03T18:45:39.985Z,101877.97
2023-06-03T18:48:08.401Z,101883.13
2023-06-03T18:50:39.060Z,101871.75
2023-06-03T18:53:10.161Z,101872.59
2023-06-03T18:55:38.540Z,101871.06
2023-06-03T18:58:08.023Z,101875.34
2023-06-03T19:00:38.921Z,101870.69
2023-06-03T19:03:17.872Z,101872.69
2023-06-03T19:05:54.639Z,101873.47
2023-06-03T19:08:24.532Z,101875.47
2023-06-03T19:10:52.824Z,101879.03
2023-06-03T19:13:21.230Z,101877.88
2023-06-03T19:15:50.176Z,101872.78
2023-06-03T19:18:18.518Z,101882.59
2023-06-03T19:20:49.669Z,101883.00
2023-06-03T19:23:18.381Z,101873.59
2023-06-03T19:25:48.086Z,101879.88
2023-06-03T19:28:16.467Z,101885.38
2023-06-03T19:30:44.762Z,101886.56
2023-06-03T19:33:16.153Z,101888.94
2023-06-03T19:35:44.670Z,101891.69
2023-06-03T19:38:12.897Z,101886.19
2023-06-03T19:40:41.206Z,101897.19
2023-06-03T19:43:10.996Z,101896.00
2023-06-03T19:45:39.361Z,101894.41
2023-06-03T19:48:07.632Z,101908.16
2023-06-03T19:50:37.073Z,101904.22
2023-06-03T19:53:05.544Z,101905.81
2023-06-03T19:55:33.891Z,101916.78
2023-06-03T19:58:02.268Z,101915.59
2023-06-03T20:00:31.947Z,101921.84
2023-06-03T20:03:02.392Z,101923.78
2023-06-03T20:05:30.857Z,101924.56
2023-06-03T20:07:59.168Z,101927.69
2023-06-03T20:10:28.044Z,101938.22
2023-06-03T20:12:56.320Z,101934.72
2023-06-03T20:15:24.967Z,101938.59
2023-06-03T20:17:54.753Z,101941.72
2023-06-03T20:20:23.232Z,101940.06
2023-06-03T20:22:53.071Z,101932.19
2023-06-03T20:25:21.567Z,101944.72
2023-06-03T20:27:54.362Z,101941.16
2023-06-03T20:30:22.673Z,101939.59
2023-06-03T20:32:51.037Z,101936.81
2023-06-03T20:35:20.847Z,101941.47
2023-06-03T20:37:49.100Z,101951.63
2023-06-03T20:40:17.833Z,101946.47
2023-06-03T20:42:46.303Z,101953.88
2023-06-03T20:45:14.641Z,101949.53
2023-06-03T20:47:43.035Z,101954.19
2023-06-03T20:50:12.929Z,101948.31
2023-06-03T20:52:42.602Z,101960.75
2023-06-03T20:55:12.930Z,101956.78
2023-06-03T20:57:42.109Z,101954.38
2023-06-03T21:00:11.849Z,101947.31
2023-06-03T21:02:40.504Z,101951.53
2023-06-03T21:05:09.595Z,101955.03
2023-06-03T21:07:37.921Z,101955.38
2023-06-03T21:10:08.780Z,101954.56
2023-06-03T21:12:37.211Z,101947.84
2023-06-03T21:15:07.023Z,101943.16
2023-06-03T21:17:36.420Z,101950.50
2023-06-03T21:20:05.570Z,101957.50
2023-06-03T21:22:33.843Z,101960.94
2023-06-03T21:25:02.636Z,101960.03
2023-06-03T21:27:32.801Z,101960.72
2023-06-03T21:30:01.226Z,101959.06
2023-06-03T21:32:29.624Z,101962.03
2023-06-03T21:34:58.091Z,101969.66
2023-06-03T21:37:26.775Z,101965.97
2023-06-03T21:39:56.208Z,101958.75
2023-06-03T21:42:24.706Z,101963.25
2023-06-03T21:44:54.485Z,101962.69
2023-06-03T21:47:22.919Z,101967.97
2023-06-03T21:49:51.296Z,101974.06
2023-06-03T21:52:19.551Z,101969.56
2023-06-03T21:54:47.924Z,101972.09
2023-06-03T21:57:16.545Z,101975.78
2023-06-03T21:59:44.840Z,101978.75
2023-06-03T22:02:14.585Z,101974.66
2023-06-03T22:04:42.905Z,101974.00
2023-06-03T22:07:12.584Z,101974.91
2023-06-03T22:09:41.018Z,101971.50
2023-06-03T22:12:10.388Z,101972.41
2023-06-03T22:14:38.672Z,101973.03
2023-06-03T22:17:07.823Z,101983.91
2023-06-03T22:19:37.508Z,101980.66
2023-06-03T22:22:06.429Z,101983.66
2023-06-03T22:24:34.814Z,101979.88
2023-06-03T22:27:03.148Z,101985.06
2023-06-03T22:29:31.515Z,101981.66
2023-06-03T22:31:59.960Z,101982.44
2023-06-03T22:34:28.302Z,101991.16
2023-06-03T22:36:58.066Z,101980.78
2023-06-03T22:39:26.975Z,101978.25
2023-06-03T22:41:55.205Z,101988.13
2023-06-03T22:44:23.520Z,101984.06
2023-06-03T22:46:52.317Z,101983.22
2023-06-03T22:49:20.699Z,101983.00
2023-06-03T22:51:49.046Z,101983.50
2023-06-03T22:54:18.988Z,101983.97
2023-06-03T22:56:47.266Z,101987.63
2023-06-03T22:59:15.537Z,101987.78
2023-06-03T23:01:44.037Z,101988.03
2023-06-03T23:04:12.404Z,101990.19
2023-06-03T23:06:40.774Z,101995.84
2023-06-03T23:09:09.046Z,101995.78
2023-06-03T23:11:38.782Z,101996.44
2023-06-03T23:14:07.196Z,101992.03
2023-06-03T23:16:35.676Z,101985.34
2023-06-03T23:19:04.011Z,101992.59
2023-06-03T23:21:32.368Z,101990.13
2023-06-03T23:24:00.693Z,101994.63
2023-06-03T23:26:29.107Z,101986.38
2023-06-03T23:28:58.749Z,101992.16
2023-06-03T23:31:27.211Z,101993.28
2023-06-03T23:33:55.594Z,101989.81
2023-06-03T23:36:24.056Z,101982.78
2023-06-03T23:38:52.389Z,101984.22
2023-06-03T23:41:20.765Z,101981.84
2023-06-03T23:43:49.028Z,101984.16
2023-06-03T23:46:19.358Z,101982.09
2023-06-03T23:48:48.818Z,101983.13
2023-06-03T23:51:17.260Z,101981.78
2023-06-03T23:53:45.536Z,101987.41
2023-06-03T23:56:13.825Z,101970.88
2023-06-03T23:58:42.385Z,101971.91
